createdAt,value
2017-09-03T00:01:36.418Z,9.60
2017-09-03T00:04:03.915Z,9.60
2017-09-03T00:06:31.431Z,9.60
2017-09-03T00:08:59.699Z,9.60
2017-09-03T00:11:27.219Z,9.60
2017-09-03T00:13:54.728Z,9.60
2017-09-03T00:16:22.251Z,9.60
2017-09-03T00:18:49.751Z,9.60
2017-09-03T00:21:17.275Z,9.60
2017-09-03T00:23:44.779Z,9.60
2017-09-03T00:26:12.299Z,9.60
2017-09-03T00:28:39.808Z,9.60
2017-09-03T00:31:07.334Z,9.60
2017-09-03T00:33:35.677Z,9.60
2017-09-03T00:36:03.198Z,9.50
2017-09-03T00:38:30.699Z,9.60
2017-09-03T00:40:58.211Z,9.50
2017-09-03T00:43:25.707Z,9.60
2017-09-03T00:45:53.226Z,9.60
2017-09-03T00:48:20.724Z,9.60
2017-09-03T00:50:48.228Z,9.60
2017-09-03T00:53:15.747Z,9.60
2017-09-03T00:55:43.250Z,9.50
2017-09-03T00:58:10.767Z,9.50
2017-09-03T01:00:38.271Z,9.50
2017-09-03T01:03:05.795Z,9.50
2017-09-03T01:05:33.294Z,9.50
2017-09-03T01:08:00.814Z,9.50
2017-09-03T01:10:29.067Z,9.50
2017-09-03T01:12:56.587Z,9.50
2017-09-03T01:15:24.083Z,9.50
2017-09-03T01:17:51.608Z,9.50
2017-09-03T01:20:19.109Z,9.50
2017-09-03T01:22:46.626Z,9.50
2017-09-03T01:25:14.129Z,9.50
2017-09-03T01:27:41.652Z,9.60
2017-09-03T01:30:09.155Z,9.50
2017-09-03T01:32:36.672Z,9.50
2017-09-03T01:35:04.178Z,9.50
2017-09-03T01:37:32.459Z,9.50
2017-09-03T01:39:59.957Z,9.40
2017-09-03T01:42:27.476Z,9.40
2017-09-03T01:44:54.978Z,9.50
2017-09-03T01:47:22.491Z,9.50
2017-09-03T01:49:49.999Z,9.40
2017-09-03T01:52:17.506Z,9.40
2017-09-03T01:54:45.019Z,9.40
2017-09-03T01:57:12.515Z,9.40
2017-09-03T01:59:40.031Z,9.40
2017-09-03T02:02:07.526Z,9.40
2017-09-03T02:04:35.042Z,9.40
2017-09-03T02:07:02.543Z,9.40
2017-09-03T02:09:30.836Z,9.40
2017-09-03T02:11:58.334Z,9.30
2017-09-03T02:14:25.851Z,9.30
2017-09-03T02:16:53.355Z,9.30
2017-09-03T02:19:20.867Z,9.40
2017-09-03T02:21:48.367Z,9.30
2017-09-03T02:24:15.883Z,9.30
2017-09-03T02:26:44.155Z,9.30
2017-09-03T02:29:11.677Z,9.30
2017-09-03T02:31:39.176Z,9.30
2017-09-03T02:34:06.695Z,9.30
2017-09-03T02:36:34.199Z,9.30
2017-09-03T02:39:01.723Z,9.40
2017-09-03T02:41:29.222Z,9.30
2017-09-03T02:43:57.507Z,9.30
2017-09-03T02:46:25.010Z,9.30
2017-09-03T02:48:52.523Z,9.30
2017-09-03T02:51:20.019Z,9.30
2017-09-03T02:53:47.523Z,9.30
2017-09-03T02:56:15.048Z,9.30
2017-09-03T02:58:42.548Z,9.30
2017-09-03T03:01:10.079Z,9.30
2017-09-03T03:03:37.579Z,9.30
2017-09-03T03:06:05.099Z,9.30
2017-09-03T03:08:32.628Z,9.30
2017-09-03T03:11:00.146Z,9.30
2017-09-03T03:13:27.654Z,9.30
2017-09-03T03:15:55.176Z,9.40
2017-09-03T03:18:22.675Z,9.30
2017-09-03T03:20:50.197Z,9.30
2017-09-03T03:23:17.698Z,9.30
2017-09-03T03:25:45.215Z,9.40
2017-09-03T03:28:12.712Z,9.30
2017-09-03T03:30:40.236Z,9.30
2017-09-03T03:33:07.747Z,9.30
2017-09-03T03:35:35.270Z,9.30
2017-09-03T03:38:02.775Z,9.30
2017-09-03T03:40:30.295Z,9.30
2017-09-03T03:42:57.804Z,9.30
2017-09-03T03:45:25.331Z,9.30
2017-09-03T03:47:52.838Z,9.30
2017-09-03T03:50:20.355Z,9.30
2017-09-03T03:52:47.860Z,9.30
2017-09-03T03:55:15.391Z,9.40
2017-09-03T03:57:42.902Z,9.30
2017-09-03T04:00:10.405Z,9.40
2017-09-03T04:02:37.926Z,9.40
2017-09-03T04:05:05.435Z,9.30
2017-09-03T04:07:32.951Z,9.30
2017-09-03T04:10:00.450Z,9.30
2017-09-03T04:12:27.963Z,9.30
2017-09-03T04:14:55.462Z,9.30
2017-09-03T04:17:22.993Z,9.30
2017-09-03T04:19:51.263Z,9.30
2017-09-03T04:22:18.787Z,9.30
2017-09-03T04:24:46.285Z,9.30
2017-09-03T04:27:13.811Z,9.30
2017-09-03T04:29:41.311Z,9.20
2017-09-03T04:32:08.845Z,9.20
2017-09-03T04:34:36.347Z,9.20
2017-09-03T04:37:03.867Z,9.20
2017-09-03T04:39:31.499Z,9.30
2017-09-03T04:41:59.006Z,9.20
2017-09-03T04:44:26.507Z,9.30
2017-09-03T04:46:54.027Z,9.30
2017-09-03T04:49:21.536Z,9.30
2017-09-03T04:51:49.054Z,9.30
2017-09-03T04:54:17.322Z,9.30
2017-09-03T04:56:44.848Z,9.30
2017-09-03T04:59:12.363Z,9.40
2017-09-03T05:01:39.862Z,9.50
2017-09-03T05:04:08.142Z,9.40
2017-09-03T05:06:35.637Z,9.40
2017-09-03T05:09:03.159Z,9.40
2017-09-03T05:11:31.431Z,9.50
2017-09-03T05:13:58.953Z,9.50
2017-09-03T05:16:26.454Z,9.50
2017-09-03T05:18:53.967Z,9.50
2017-09-03T05:21:21.461Z,9.60
2017-09-03T05:23:48.988Z,9.60
2017-09-03T05:26:16.484Z,9.60
2017-09-03T05:28:44.767Z,9.70
2017-09-03T05:31:12.274Z,9.70
2017-09-03T05:33:39.792Z,9.70
2017-09-03T05:36:07.291Z,9.80
2017-09-03T05:38:34.807Z,9.70
2017-09-03T05:41:02.319Z,9.70
2017-09-03T05:43:29.831Z,9.70
2017-09-03T05:45:57.331Z,9.70
2017-09-03T05:48:24.846Z,9.70
2017-09-03T05:50:52.346Z,9.80
2017-09-03T05:53:19.864Z,9.90
2017-09-03T05:55:47.419Z,9.90
2017-09-03T05:58:14.950Z,9.90
2017-09-03T06:00:43.220Z,10.00
2017-09-03T06:03:10.728Z,10.00
2017-09-03T06:05:38.255Z,10.10
2017-09-03T06:08:05.763Z,10.10
2017-09-03T06:10:33.291Z,10.20
2017-09-03T06:13:00.804Z,10.20
2017-09-03T06:15:28.327Z,10.20
2017-09-03T06:17:55.874Z,10.30
2017-09-03T06:20:23.398Z,10.30
2017-09-03T06:22:50.900Z,10.30
2017-09-03T06:25:18.419Z,10.40
2017-09-03T06:27:45.923Z,10.40
2017-09-03T06:30:13.442Z,10.40
2017-09-03T06:32:41.719Z,10.60
2017-09-03T06:35:09.234Z,10.50
2017-09-03T06:37:36.735Z,10.60
2017-09-03T06:40:04.260Z,10.70
2017-09-03T06:42:31.772Z,10.70
2017-09-03T06:44:59.295Z,10.70
2017-09-03T06:47:26.807Z,10.80
2017-09-03T06:49:54.327Z,10.70
2017-09-03T06:52:21.834Z,10.80
2017-09-03T06:54:49.357Z,10.80
2017-09-03T06:57:17.628Z,10.90
2017-09-03T06:59:45.151Z,10.80
2017-09-03T07:02:12.659Z,10.90
2017-09-03T07:04:40.178Z,11.00
2017-09-03T07:07:08.465Z,11.10
2017-09-03T07:09:35.974Z,11.10
2017-09-03T07:12:03.491Z,11.20
2017-09-03T07:14:30.995Z,11.30
2017-09-03T07:16:58.523Z,11.30
2017-09-03T07:19:26.028Z,11.50
2017-09-03T07:21:53.551Z,11.50
2017-09-03T07:24:21.055Z,11.60
2017-09-03T07:26:48.571Z,11.60
2017-09-03T07:29:16.072Z,11.60
2017-09-03T07:31:43.595Z,11.60
2017-09-03T07:34:11.095Z,11.50
2017-09-03T07:36:38.623Z,11.50
2017-09-03T07:39:06.135Z,11.70
2017-09-03T07:41:33.659Z,11.80
2017-09-03T07:44:01.165Z,12.10
2017-09-03T07:46:28.687Z,12.30
2017-09-03T07:48:56.192Z,12.30
2017-09-03T07:51:23.715Z,12.40
2017-09-03T07:53:51.218Z,12.40
2017-09-03T07:56:18.739Z,12.30
2017-09-03T07:58:46.248Z,12.30
2017-09-03T08:01:13.768Z,12.30
2017-09-03T08:03:41.272Z,12.60
2017-09-03T08:06:08.811Z,12.90
2017-09-03T08:08:36.336Z,13.00
2017-09-03T08:11:03.830Z,13.10
2017-09-03T08:13:31.360Z,12.90
2017-09-03T08:15:58.859Z,12.80
2017-09-03T08:18:26.376Z,12.70
2017-09-03T08:20:53.880Z,12.50
2017-09-03T08:23:21.403Z,12.50
2017-09-03T08:25:48.907Z,12.50
2017-09-03T08:28:16.431Z,12.50
2017-09-03T08:30:43.932Z,12.40
2017-09-03T08:33:11.455Z,12.40
2017-09-03T08:35:38.963Z,12.60
2017-09-03T08:38:06.482Z,12.70
2017-09-03T08:40:33.988Z,12.70
2017-09-03T08:43:01.507Z,12.70
2017-09-03T08:45:29.007Z,12.60
2017-09-03T08:47:56.580Z,12.50
2017-09-03T08:50:24.082Z,12.30
2017-09-03T08:52:51.607Z,12.30
2017-09-03T08:55:19.109Z,12.40
2017-09-03T08:57:46.635Z,12.40
2017-09-03T09:00:14.139Z,12.40
2017-09-03T09:02:41.664Z,12.40
2017-09-03T09:05:09.172Z,12.40
2017-09-03T09:07:36.711Z,12.40
2017-09-03T09:10:04.211Z,12.70
2017-09-03T09:12:31.718Z,13.20
2017-09-03T09:15:00.007Z,14.00
2017-09-03T09:17:27.512Z,14.00
2017-09-03T09:19:55.023Z,14.30
2017-09-03T09:22:22.536Z,14.20
2017-09-03T09:24:50.054Z,14.00
2017-09-03T09:27:17.579Z,14.00
2017-09-03T09:29:45.130Z,14.00
2017-09-03T09:32:12.641Z,14.00
2017-09-03T09:34:40.159Z,14.30
2017-09-03T09:37:07.663Z,15.00
2017-09-03T09:39:35.183Z,15.10
2017-09-03T09:42:02.693Z,14.90
2017-09-03T09:44:30.215Z,14.60
2017-09-03T09:46:57.719Z,14.10
2017-09-03T09:49:25.244Z,13.90
2017-09-03T09:51:52.746Z,13.80
2017-09-03T09:54:20.275Z,13.80
2017-09-03T09:56:47.791Z,14.10
2017-09-03T09:59:16.075Z,14.80
2017-09-03T10:01:43.579Z,14.80
2017-09-03T10:04:11.094Z,15.10
2017-09-03T10:06:38.595Z,15.20
2017-09-03T10:09:06.099Z,15.20
2017-09-03T10:11:33.618Z,14.60
2017-09-03T10:14:01.111Z,14.30
2017-09-03T10:16:28.643Z,13.90
2017-09-03T10:18:56.168Z,13.80
2017-09-03T10:21:23.683Z,13.60
2017-09-03T10:23:51.950Z,13.50
2017-09-03T10:26:19.470Z,13.40
2017-09-03T10:28:46.971Z,13.40
2017-09-03T10:31:14.491Z,13.40
2017-09-03T10:33:41.990Z,13.70
2017-09-03T10:36:09.511Z,14.10
2017-09-03T10:38:37.011Z,14.40
2017-09-03T10:41:04.526Z,14.60
2017-09-03T10:43:32.027Z,14.80
2017-09-03T10:45:59.548Z,15.00
2017-09-03T10:48:27.052Z,15.30
2017-09-03T10:50:54.574Z,15.70
2017-09-03T10:53:22.071Z,15.60
2017-09-03T10:55:49.595Z,15.70
2017-09-03T10:58:17.091Z,15.90
2017-09-03T11:00:44.610Z,16.20
2017-09-03T11:03:12.111Z,16.10
2017-09-03T11:05:39.637Z,16.60
2017-09-03T11:08:07.130Z,16.60
2017-09-03T11:10:34.634Z,17.00
2017-09-03T11:13:02.151Z,17.40
2017-09-03T11:15:29.652Z,17.70
2017-09-03T11:17:57.187Z,16.90
2017-09-03T11:20:24.684Z,16.00
2017-09-03T11:22:52.199Z,15.30
2017-09-03T11:25:19.695Z,14.80
2017-09-03T11:27:47.214Z,14.40
2017-09-03T11:30:14.714Z,14.10
2017-09-03T11:32:42.235Z,14.00
2017-09-03T11:35:09.738Z,13.90
2017-09-03T11:37:37.255Z,14.00
2017-09-03T11:40:04.754Z,13.90
2017-09-03T11:42:32.268Z,14.00
2017-09-03T11:44:59.772Z,14.00
2017-09-03T11:47:27.295Z,14.00
2017-09-03T11:49:54.796Z,14.20
2017-09-03T11:52:22.315Z,14.30
2017-09-03T11:54:49.824Z,14.30
2017-09-03T11:57:17.347Z,14.70
2017-09-03T11:59:44.843Z,14.70
2017-09-03T12:02:12.359Z,15.00
2017-09-03T12:04:39.863Z,15.10
2017-09-03T12:07:07.387Z,14.90
2017-09-03T12:09:34.905Z,15.10
2017-09-03T12:12:02.439Z,14.90
2017-09-03T12:14:30.151Z,15.10
2017-09-03T12:16:57.642Z,14.80
2017-09-03T12:19:25.156Z,14.50
2017-09-03T12:21:52.654Z,14.40
2017-09-03T12:24:20.171Z,14.40
2017-09-03T12:26:47.675Z,14.10
2017-09-03T12:29:15.186Z,13.70
2017-09-03T12:31:42.683Z,13.60
2017-09-03T12:34:10.209Z,13.10
2017-09-03T12:36:37.708Z,12.80
2017-09-03T12:39:05.223Z,12.50
2017-09-03T12:41:32.722Z,12.20
2017-09-03T12:44:00.279Z,12.10
2017-09-03T12:46:28.543Z,12.20
2017-09-03T12:48:56.063Z,12.20
2017-09-03T12:51:23.572Z,12.10
2017-09-03T12:53:51.089Z,12.10
2017-09-03T12:56:18.595Z,12.20
2017-09-03T12:58:46.115Z,12.30
2017-09-03T13:01:13.615Z,12.30
2017-09-03T13:03:41.130Z,12.40
2017-09-03T13:06:08.625Z,12.60
2017-09-03T13:08:36.135Z,12.80
2017-09-03T13:11:03.635Z,13.00
2017-09-03T13:13:31.151Z,13.10
2017-09-03T13:15:58.671Z,13.10
2017-09-03T13:18:26.167Z,13.20
2017-09-03T13:20:53.675Z,13.10
2017-09-03T13:23:21.183Z,13.40
2017-09-03T13:25:48.702Z,13.60
2017-09-03T13:28:16.203Z,14.00
2017-09-03T13:30:43.715Z,13.90
2017-09-03T13:33:11.215Z,13.90
2017-09-03T13:35:38.723Z,14.20
2017-09-03T13:38:06.219Z,14.40
2017-09-03T13:40:33.740Z,14.60
2017-09-03T13:43:01.235Z,14.90
2017-09-03T13:45:28.751Z,15.20
2017-09-03T13:47:56.261Z,15.20
2017-09-03T13:50:23.778Z,15.30
2017-09-03T13:52:51.271Z,15.10
2017-09-03T13:55:18.786Z,14.90
2017-09-03T13:57:46.283Z,14.70
2017-09-03T14:00:13.804Z,14.40
2017-09-03T14:02:41.302Z,14.10
2017-09-03T14:05:08.815Z,13.90
2017-09-03T14:07:36.311Z,13.60
2017-09-03T14:10:03.827Z,13.40
2017-09-03T14:12:31.322Z,13.20
2017-09-03T14:14:58.839Z,13.10
2017-09-03T14:17:27.123Z,12.50
2017-09-03T14:19:54.618Z,12.50
2017-09-03T14:22:22.135Z,12.40
2017-09-03T14:24:49.642Z,12.40
2017-09-03T14:27:17.163Z,12.30
2017-09-03T14:29:44.657Z,12.20
2017-09-03T14:32:12.167Z,12.20
2017-09-03T14:34:39.669Z,12.10
2017-09-03T14:37:07.181Z,12.00
2017-09-03T14:39:34.677Z,12.10
2017-09-03T14:42:02.192Z,12.10
2017-09-03T14:44:29.699Z,12.10
2017-09-03T14:46:57.215Z,12.20
2017-09-03T14:49:24.722Z,12.40
2017-09-03T14:51:52.235Z,12.30
2017-09-03T14:54:19.732Z,12.30
2017-09-03T14:56:47.254Z,12.20
2017-09-03T14:59:14.755Z,12.20
2017-09-03T15:01:42.271Z,12.20
2017-09-03T15:04:10.531Z,12.30
2017-09-03T15:06:38.058Z,12.20
2017-09-03T15:09:05.558Z,12.20
2017-09-03T15:11:33.075Z,12.20
2017-09-03T15:14:00.570Z,12.20
2017-09-03T15:16:28.872Z,12.30
2017-09-03T15:18:56.371Z,12.20
2017-09-03T15:21:23.869Z,12.10
2017-09-03T15:23:51.384Z,11.90
2017-09-03T15:26:18.878Z,11.80
2017-09-03T15:28:46.395Z,11.70
2017-09-03T15:31:13.916Z,11.40
2017-09-03T15:33:41.433Z,11.40
2017-09-03T15:36:08.927Z,11.30
2017-09-03T15:38:36.446Z,11.30
2017-09-03T15:41:03.943Z,11.30
2017-09-03T15:43:31.468Z,11.40
2017-09-03T15:45:58.975Z,11.60
2017-09-03T15:48:26.492Z,11.60
2017-09-03T15:50:53.992Z,11.70
2017-09-03T15:53:21.507Z,11.80
2017-09-03T15:55:49.010Z,11.80
2017-09-03T15:58:16.532Z,11.80
2017-09-03T16:00:44.027Z,11.80
2017-09-03T16:03:11.558Z,11.90
2017-09-03T16:05:39.819Z,11.80
2017-09-03T16:08:08.113Z,11.70
2017-09-03T16:10:35.615Z,11.70
2017-09-03T16:13:03.127Z,11.60
2017-09-03T16:15:30.618Z,11.60
2017-09-03T16:17:58.155Z,11.60
2017-09-03T16:20:25.651Z,11.50
2017-09-03T16:22:53.143Z,11.50
2017-09-03T16:25:20.659Z,11.40
2017-09-03T16:27:48.159Z,11.40
2017-09-03T16:30:15.683Z,11.30
2017-09-03T16:32:43.179Z,11.20
2017-09-03T16:35:10.686Z,11.10
2017-09-03T16:37:38.188Z,11.10
2017-09-03T16:40:05.702Z,11.10
2017-09-03T16:42:33.195Z,11.00
2017-09-03T16:45:00.715Z,11.00
2017-09-03T16:47:28.219Z,11.00
2017-09-03T16:49:55.734Z,11.00
2017-09-03T16:52:28.038Z,10.90
2017-09-03T16:54:55.561Z,10.90
2017-09-03T16:57:23.060Z,10.80
2017-09-03T16:59:50.571Z,10.80
2017-09-03T17:02:18.078Z,10.80
2017-09-03T17:04:45.595Z,10.80
2017-09-03T17:07:13.099Z,10.70
2017-09-03T17:09:40.620Z,10.70
2017-09-03T17:12:08.115Z,10.70
2017-09-03T17:14:35.643Z,10.70
2017-09-03T17:17:03.138Z,10.60
2017-09-03T17:19:30.651Z,10.60
2017-09-03T17:21:58.151Z,10.60
2017-09-03T17:24:25.648Z,10.50
2017-09-03T17:26:54.166Z,10.50
2017-09-03T17:29:21.662Z,10.40
2017-09-03T17:31:49.171Z,10.40
2017-09-03T17:34:16.666Z,10.40
2017-09-03T17:36:59.050Z,10.40
2017-09-03T17:39:28.992Z,10.30
2017-09-03T17:41:57.079Z,10.20
2017-09-03T17:44:24.574Z,10.10
2017-09-03T17:46:52.530Z,10.00
2017-09-03T17:49:20.938Z,9.90
2017-09-03T17:51:48.446Z,9.90
2017-09-03T17:54:15.939Z,9.90
2017-09-03T17:56:43.448Z,9.90
2017-09-03T17:59:10.938Z,9.90
2017-09-03T18:01:38.455Z,10.00
2017-09-03T18:04:05.956Z,10.00
2017-09-03T18:06:33.479Z,9.90
2017-09-03T18:09:00.974Z,9.80
2017-09-03T18:11:28.468Z,9.80
2017-09-03T18:13:55.987Z,9.80
2017-09-03T18:16:23.479Z,9.70
2017-09-03T18:18:50.999Z,9.70
2017-09-03T18:21:18.496Z,9.60
2017-09-03T18:23:46.008Z,9.60
2017-09-03T18:26:13.511Z,9.50
2017-09-03T18:28:42.614Z,9.50
2017-09-03T18:31:20.022Z,9.50
2017-09-03T18:33:47.534Z,9.40
2017-09-03T18:36:17.947Z,9.50
2017-09-03T18:38:51.195Z,9.50
2017-09-03T18:41:21.283Z,9.40
2017-09-03T18:43:48.799Z,9.40
2017-09-03T18:46:17.214Z,9.40
2017-09-03T18:48:44.724Z,9.40
2017-09-03T18:54:12.466Z,9.30
2017-09-03T18:56:39.954Z,9.20
2017-09-03T18:59:22.344Z,9.20
2017-09-03T19:01:53.333Z,9.20
2017-09-03T19:04:21.637Z,9.10
2017-09-03T19:06:49.142Z,9.10
2017-09-03T19:09:16.651Z,9.10
2017-09-03T19:11:44.159Z,9.10
2017-09-03T19:14:11.667Z,9.00
2017-09-03T19:16:39.159Z,9.00
2017-09-03T19:19:06.691Z,9.00
2017-09-03T19:21:34.186Z,9.10
2017-09-03T19:24:01.689Z,9.10
2017-09-03T19:26:29.299Z,9.10
2017-09-03T19:28:56.809Z,9.10
2017-09-03T19:31:24.327Z,9.00
2017-09-03T19:33:51.844Z,9.00
2017-09-03T19:36:19.359Z,9.10
2017-09-03T19:38:46.862Z,9.20
2017-09-03T19:41:14.383Z,9.20
2017-09-03T19:43:41.874Z,9.20
2017-09-03T19:46:09.388Z,9.20
2017-09-03T19:48:36.882Z,9.20
2017-09-03T19:51:04.391Z,9.20
2017-09-03T19:53:31.887Z,9.20
2017-09-03T19:55:59.407Z,9.30
2017-09-03T19:58:26.901Z,9.30
2017-09-03T20:00:54.419Z,9.30
2017-09-03T20:03:21.907Z,9.30
2017-09-03T20:05:49.418Z,9.20
2017-09-03T20:08:16.906Z,9.20
2017-09-03T20:10:44.415Z,9.20
2017-09-03T20:13:11.914Z,9.10
2017-09-03T20:15:39.411Z,9.10
2017-09-03T20:18:06.927Z,9.10
2017-09-03T20:20:34.422Z,9.10
2017-09-03T20:23:01.934Z,9.10
2017-09-03T20:25:29.426Z,9.10
2017-09-03T20:27:56.939Z,9.10
2017-09-03T20:30:24.438Z,9.00
2017-09-03T20:32:51.950Z,9.00
2017-09-03T20:35:19.451Z,9.00
2017-09-03T20:37:46.972Z,9.00
2017-09-03T20:40:14.478Z,9.00
2017-09-03T20:42:41.995Z,8.80
2017-09-03T20:45:09.499Z,8.80
2017-09-03T20:47:37.020Z,8.70
2017-09-03T20:50:04.518Z,8.70
2017-09-03T20:52:32.037Z,8.80
2017-09-03T20:54:59.552Z,8.90
2017-09-03T20:57:27.068Z,9.00
2017-09-03T20:59:54.593Z,9.00
2017-09-03T21:02:22.115Z,9.10
2017-09-03T21:04:49.615Z,9.10
2017-09-03T21:07:17.127Z,9.10
2017-09-03T21:09:44.627Z,9.10
2017-09-03T21:12:12.159Z,9.20
2017-09-03T21:14:39.650Z,9.20
2017-09-03T21:17:07.179Z,9.20
2017-09-03T21:19:34.695Z,9.20
2017-09-03T21:22:02.204Z,9.20
2017-09-03T21:24:29.724Z,9.20
2017-09-03T21:26:57.222Z,9.20
2017-09-03T21:29:24.739Z,9.20
2017-09-03T21:31:52.235Z,9.30
2017-09-03T21:34:19.750Z,9.30
2017-09-03T21:36:47.251Z,9.30
2017-09-03T21:39:14.763Z,9.20
2017-09-03T21:41:42.264Z,9.20
2017-09-03T21:44:09.771Z,9.10
2017-09-03T21:46:37.271Z,9.10
2017-09-03T21:49:04.784Z,9.00
2017-09-03T21:51:32.280Z,9.10
2017-09-03T21:53:59.786Z,9.10
2017-09-03T21:56:27.283Z,9.10
2017-09-03T21:58:54.791Z,9.10
2017-09-03T22:01:22.291Z,9.10
2017-09-03T22:03:49.811Z,9.00
2017-09-03T22:06:17.307Z,8.90
2017-09-03T22:08:44.831Z,8.90
2017-09-03T22:11:13.099Z,8.70
2017-09-03T22:13:40.607Z,8.70
2017-09-03T22:16:08.102Z,8.70
2017-09-03T22:18:35.611Z,8.70
2017-09-03T22:21:03.108Z,8.70
2017-09-03T22:23:30.599Z,8.70
2017-09-03T22:25:58.115Z,8.60
2017-09-03T22:28:25.611Z,8.60
2017-09-03T22:30:53.123Z,8.50
2017-09-03T22:33:20.619Z,8.50
2017-09-03T22:35:48.140Z,8.40
2017-09-03T22:38:15.639Z,8.40
2017-09-03T22:40:43.163Z,8.40
2017-09-03T22:43:10.656Z,8.40
2017-09-03T22:45:38.176Z,8.40
2017-09-03T22:48:05.679Z,8.30
2017-09-03T22:50:33.199Z,8.20
2017-09-03T22:53:00.691Z,8.20
2017-09-03T22:55:28.207Z,8.10
2017-09-03T22:57:55.712Z,8.00
2017-09-03T23:00:23.232Z,8.00
2017-09-03T23:02:50.731Z,7.90
2017-09-03T23:05:18.244Z,8.00
2017-09-03T23:07:45.748Z,8.00
2017-09-03T23:10:13.259Z,8.00
2017-09-03T23:12:40.755Z,8.00
2017-09-03T23:15:08.275Z,8.00
2017-09-03T23:17:35.782Z,7.90
2017-09-03T23:20:03.290Z,7.90
2017-09-03T23:22:35.635Z,7.90
2017-09-03T23:25:03.128Z,7.90
2017-09-03T23:27:30.655Z,7.80
2017-09-03T23:29:58.147Z,7.80
2017-09-03T23:32:25.667Z,7.70
2017-09-03T23:34:53.161Z,7.70
2017-09-03T23:37:20.671Z,7.70
2017-09-03T23:39:48.170Z,7.70
2017-09-03T23:42:15.682Z,7.60
2017-09-03T23:44:43.172Z,7.60
2017-09-03T23:47:10.683Z,7.60
2017-09-03T23:49:38.178Z,7.60
2017-09-03T23:52:05.686Z,7.60
2017-09-03T23:54:33.182Z,7.60
2017-09-03T23:57:00.696Z,7.50
2017-09-03T23:59:28.191Z,7.50
